AME4536 LOWS-EDDK
Flight info
| Callsign | AME4536 |
|---|---|
| Flight time | 0h 52m |
| Altitude | 34000 |
| Route | TRAUN L856 KPT L608 KOVAN T844 UMDAS/N0380F240 T844 ASKIK T840 GULKO |
| Aircraft | A310/H-SDFGHIM1RTUWXY/LB1 |
Departure
| Time | 2026-05-06 18:40 |
|---|---|
| Airport | Salzburg Airport (LOWS) |
Arrival
| Time | 2026-05-06 19:32 |
|---|---|
| Airport | Cologne Bonn Airport (EDDK) |
| Time | Latitude | Longitude | Altitude | Speed | Heading |
|---|---|---|---|---|---|
| 2026-05-06 18:24 | 47.79317 | 12.99798 | 1426 ft | 0 kts | 248° |
| 2026-05-06 18:33 | 47.79327 | 12.99821 | 1426 ft | 2 kts | 220° |
| 2026-05-06 18:33 | 47.79329 | 12.99823 | 1426 ft | 0 kts | 224° |
| 2026-05-06 18:34 | 47.79333 | 12.99828 | 1426 ft | 0 kts | 224° |
| 2026-05-06 18:34 | 47.79336 | 12.99833 | 1426 ft | 3 kts | 224° |
| 2026-05-06 18:34 | 47.79345 | 12.99847 | 1426 ft | 0 kts | 217° |
| 2026-05-06 18:35 | 47.79323 | 12.99841 | 1426 ft | 6 kts | 174° |
| 2026-05-06 18:36 | 47.79268 | 12.99886 | 1426 ft | 12 kts | 147° |
| 2026-05-06 18:36 | 47.79202 | 12.99960 | 1426 ft | 12 kts | 142° |
| 2026-05-06 18:36 | 47.79130 | 13.00041 | 1426 ft | 13 kts | 144° |
| 2026-05-06 18:36 | 47.79045 | 13.00105 | 1426 ft | 14 kts | 156° |
| 2026-05-06 18:37 | 47.78965 | 13.00186 | 1426 ft | 14 kts | 118° |
| 2026-05-06 18:37 | 47.78953 | 13.00284 | 1425 ft | 15 kts | 94° |
| 2026-05-06 18:37 | 47.78864 | 13.00426 | 1425 ft | 18 kts | 158° |
| 2026-05-06 18:37 | 47.78731 | 13.00500 | 1425 ft | 23 kts | 158° |
| 2026-05-06 18:38 | 47.78587 | 13.00592 | 1426 ft | 18 kts | 154° |
| 2026-05-06 18:38 | 47.78531 | 13.00680 | 1426 ft | 12 kts | 103° |
| 2026-05-06 18:38 | 47.78549 | 13.00799 | 1426 ft | 13 kts | 67° |
| 2026-05-06 18:38 | 47.78588 | 13.00873 | 1425 ft | 5 kts | 339° |
| 2026-05-06 18:39 | 47.78626 | 13.00844 | 1425 ft | 7 kts | 336° |
| 2026-05-06 18:39 | 47.78655 | 13.00825 | 1425 ft | 0 kts | 337° |
| 2026-05-06 18:39 | 47.78660 | 13.00822 | 1426 ft | 4 kts | 337° |
| 2026-05-06 18:40 | 47.79066 | 13.00560 | 1424 ft | 87 kts | 336° |
| 2026-05-06 18:40 | 47.79816 | 13.00082 | 1427 ft | 146 kts | 335° |
| 2026-05-06 18:40 | 47.80791 | 12.99511 | 1940 ft | 152 kts | 339° |
| 2026-05-06 18:40 | 47.81831 | 12.99051 | 2593 ft | 159 kts | 342° |
| 2026-05-06 18:41 | 47.82893 | 12.98600 | 3327 ft | 161 kts | 335° |
| 2026-05-06 18:41 | 47.84005 | 12.98026 | 3812 ft | 173 kts | 340° |
| 2026-05-06 18:41 | 47.85071 | 12.97297 | 4498 ft | 172 kts | 321° |
| 2026-05-06 18:41 | 47.85999 | 12.96071 | 4933 ft | 190 kts | 308° |
| 2026-05-06 18:42 | 47.86670 | 12.94339 | 5513 ft | 201 kts | 288° |
| 2026-05-06 18:42 | 47.87158 | 12.92304 | 6151 ft | 218 kts | 288° |
| 2026-05-06 18:42 | 47.87718 | 12.90106 | 6760 ft | 238 kts | 289° |
| 2026-05-06 18:42 | 47.88373 | 12.87733 | 7381 ft | 254 kts | 290° |
| 2026-05-06 18:43 | 47.89098 | 12.85284 | 8021 ft | 262 kts | 290° |
| 2026-05-06 18:43 | 47.89859 | 12.82785 | 8639 ft | 268 kts | 290° |
| 2026-05-06 18:43 | 47.90649 | 12.80251 | 9287 ft | 272 kts | 290° |
| 2026-05-06 18:43 | 47.91458 | 12.77682 | 9922 ft | 276 kts | 290° |
| 2026-05-06 18:44 | 47.92278 | 12.75083 | 10522 ft | 281 kts | 290° |
| 2026-05-06 18:44 | 47.93154 | 12.72346 | 10990 ft | 304 kts | 291° |
| 2026-05-06 18:44 | 47.94079 | 12.69417 | 11663 ft | 321 kts | 290° |
| 2026-05-06 18:44 | 47.95045 | 12.66351 | 12429 ft | 334 kts | 291° |
| 2026-05-06 18:45 | 47.96067 | 12.63179 | 13236 ft | 345 kts | 291° |
| 2026-05-06 18:45 | 47.97107 | 12.59909 | 13995 ft | 355 kts | 290° |
| 2026-05-06 18:45 | 47.97781 | 12.56360 | 14503 ft | 362 kts | 270° |
| 2026-05-06 18:45 | 47.97656 | 12.53856 | 14836 ft | 367 kts | 257° |
| 2026-05-06 18:46 | 47.96844 | 12.48863 | 15748 ft | 377 kts | 254° |
| 2026-05-06 18:46 | 47.96289 | 12.45011 | 16511 ft | 384 kts | 257° |
| 2026-05-06 18:46 | 47.95835 | 12.41052 | 17262 ft | 391 kts | 258° |
| 2026-05-06 18:46 | 47.95439 | 12.37024 | 18022 ft | 396 kts | 259° |
| 2026-05-06 18:47 | 47.95055 | 12.32941 | 18703 ft | 401 kts | 259° |
| 2026-05-06 18:47 | 47.94670 | 12.28816 | 19381 ft | 404 kts | 259° |
| 2026-05-06 18:47 | 47.94282 | 12.24652 | 20055 ft | 408 kts | 259° |
| 2026-05-06 18:47 | 47.93890 | 12.20442 | 20725 ft | 412 kts | 259° |
| 2026-05-06 18:48 | 47.93493 | 12.16196 | 21383 ft | 416 kts | 259° |
| 2026-05-06 18:48 | 47.93076 | 12.11915 | 22052 ft | 420 kts | 259° |
| 2026-05-06 18:48 | 47.92685 | 12.07586 | 22711 ft | 426 kts | 262° |
| 2026-05-06 18:48 | 47.92791 | 12.03145 | 23359 ft | 436 kts | 275° |
| 2026-05-06 18:49 | 47.93431 | 11.98697 | 23922 ft | 442 kts | 281° |
| 2026-05-06 18:49 | 47.94272 | 11.94283 | 24508 ft | 446 kts | 283° |
| 2026-05-06 18:49 | 47.95153 | 11.89836 | 25103 ft | 449 kts | 282° |
| 2026-05-06 18:49 | 47.96005 | 11.85358 | 25679 ft | 451 kts | 281° |
| 2026-05-06 18:50 | 47.96834 | 11.80842 | 26247 ft | 454 kts | 281° |
| 2026-05-06 18:50 | 47.97662 | 11.76301 | 26893 ft | 455 kts | 281° |
| 2026-05-06 18:50 | 47.98473 | 11.71729 | 27507 ft | 457 kts | 280° |
| 2026-05-06 18:50 | 47.99278 | 11.67174 | 28352 ft | 453 kts | 280° |
| 2026-05-06 18:51 | 48.00076 | 11.62651 | 29185 ft | 450 kts | 280° |
| 2026-05-06 18:51 | 48.00876 | 11.58163 | 30028 ft | 447 kts | 280° |
| 2026-05-06 18:51 | 48.01680 | 11.53706 | 30720 ft | 444 kts | 280° |
| 2026-05-06 18:51 | 48.02489 | 11.49267 | 31397 ft | 442 kts | 280° |
| 2026-05-06 18:52 | 48.03271 | 11.44846 | 32051 ft | 440 kts | 279° |
| 2026-05-06 18:52 | 48.04034 | 11.40442 | 32709 ft | 438 kts | 279° |
| 2026-05-06 18:52 | 48.04796 | 11.36049 | 33344 ft | 437 kts | 279° |
| 2026-05-06 18:52 | 48.05571 | 11.31641 | 33673 ft | 442 kts | 279° |
| 2026-05-06 18:53 | 48.06352 | 11.27221 | 33812 ft | 439 kts | 279° |
| 2026-05-06 18:53 | 48.07890 | 11.18404 | 33864 ft | 440 kts | 279° |
| 2026-05-06 18:54 | 48.09426 | 11.09566 | 33866 ft | 441 kts | 279° |
| 2026-05-06 18:54 | 48.10959 | 11.00696 | 33893 ft | 442 kts | 279° |
| 2026-05-06 18:55 | 48.12494 | 10.91791 | 33883 ft | 443 kts | 279° |
| 2026-05-06 18:55 | 48.14024 | 10.82865 | 33899 ft | 444 kts | 279° |
| 2026-05-06 18:56 | 48.15545 | 10.73913 | 33885 ft | 445 kts | 279° |
| 2026-05-06 18:56 | 48.17026 | 10.65134 | 33886 ft | 446 kts | 279° |
| 2026-05-06 18:57 | 48.18546 | 10.56143 | 33882 ft | 447 kts | 279° |
| 2026-05-06 18:57 | 48.20061 | 10.47122 | 33881 ft | 447 kts | 279° |
| 2026-05-06 18:58 | 48.21568 | 10.38091 | 33882 ft | 448 kts | 279° |
| 2026-05-06 18:58 | 48.23072 | 10.29045 | 33881 ft | 448 kts | 279° |
| 2026-05-06 18:59 | 48.24571 | 10.19976 | 33866 ft | 449 kts | 279° |
| 2026-05-06 18:59 | 48.26062 | 10.10900 | 33866 ft | 449 kts | 279° |
| 2026-05-06 19:00 | 48.27551 | 10.01811 | 33866 ft | 450 kts | 279° |
| 2026-05-06 19:00 | 48.29024 | 9.92698 | 33865 ft | 450 kts | 279° |
| 2026-05-06 19:01 | 48.30499 | 9.83579 | 33862 ft | 451 kts | 279° |
| 2026-05-06 19:01 | 48.31967 | 9.74445 | 33863 ft | 451 kts | 279° |
| 2026-05-06 19:02 | 48.33428 | 9.65290 | 33870 ft | 451 kts | 279° |
| 2026-05-06 19:02 | 48.34380 | 9.60787 | 33870 ft | 459 kts | 291° |
| 2026-05-06 19:02 | 48.36254 | 9.56870 | 33885 ft | 471 kts | 311° |
| 2026-05-06 19:02 | 48.38897 | 9.53913 | 33902 ft | 479 kts | 324° |
| 2026-05-06 19:03 | 48.41728 | 9.51276 | 33895 ft | 480 kts | 323° |
| 2026-05-06 19:03 | 48.47004 | 9.45222 | 33870 ft | 476 kts | 315° |
| 2026-05-06 19:04 | 48.51971 | 9.38647 | 33856 ft | 477 kts | 315° |
| 2026-05-06 19:04 | 48.57005 | 9.32143 | 33858 ft | 478 kts | 316° |
| 2026-05-06 19:05 | 48.62062 | 9.25635 | 33858 ft | 480 kts | 318° |
| 2026-05-06 19:05 | 48.64937 | 9.23047 | 33862 ft | 486 kts | 333° |
| 2026-05-06 19:05 | 48.68098 | 9.21204 | 33864 ft | 489 kts | 337° |
| 2026-05-06 19:06 | 48.74459 | 9.17586 | 33860 ft | 488 kts | 334° |
| 2026-05-06 19:06 | 48.80668 | 9.13472 | 33854 ft | 488 kts | 333° |
| 2026-05-06 19:07 | 48.86856 | 9.09284 | 33855 ft | 488 kts | 333° |
| 2026-05-06 19:07 | 48.93226 | 9.05674 | 33852 ft | 491 kts | 340° |
| 2026-05-06 19:08 | 48.99731 | 9.02586 | 33839 ft | 491 kts | 340° |
| 2026-05-06 19:08 | 49.06199 | 8.99334 | 33834 ft | 490 kts | 339° |
| 2026-05-06 19:09 | 49.12675 | 8.96077 | 33837 ft | 491 kts | 340° |
| 2026-05-06 19:09 | 49.19139 | 8.92780 | 33822 ft | 491 kts | 339° |
| 2026-05-06 19:10 | 49.25620 | 8.89515 | 33837 ft | 491 kts | 339° |
| 2026-05-06 19:10 | 49.32094 | 8.86215 | 33830 ft | 492 kts | 340° |
| 2026-05-06 19:11 | 49.38575 | 8.82903 | 33824 ft | 491 kts | 339° |
| 2026-05-06 19:11 | 49.45108 | 8.79848 | 33834 ft | 493 kts | 342° |
| 2026-05-06 19:12 | 49.51702 | 8.77024 | 33833 ft | 493 kts | 342° |
| 2026-05-06 19:12 | 49.58289 | 8.74189 | 33833 ft | 493 kts | 342° |
| 2026-05-06 19:13 | 49.64861 | 8.71271 | 33830 ft | 493 kts | 342° |
| 2026-05-06 19:13 | 49.71439 | 8.68361 | 33834 ft | 492 kts | 342° |
| 2026-05-06 19:14 | 49.78011 | 8.65463 | 33829 ft | 492 kts | 342° |
| 2026-05-06 19:14 | 49.84581 | 8.62553 | 33832 ft | 494 kts | 342° |
| 2026-05-06 19:15 | 49.91186 | 8.59578 | 33828 ft | 496 kts | 342° |
| 2026-05-06 19:15 | 49.97818 | 8.56647 | 33362 ft | 498 kts | 342° |
| 2026-05-06 19:15 | 50.01137 | 8.55172 | 32625 ft | 496 kts | 342° |
| 2026-05-06 19:16 | 50.04437 | 8.53714 | 31720 ft | 493 kts | 342° |
| 2026-05-06 19:16 | 50.07694 | 8.52137 | 30824 ft | 489 kts | 340° |
| 2026-05-06 19:16 | 50.10879 | 8.50385 | 29951 ft | 485 kts | 339° |
| 2026-05-06 19:16 | 50.14031 | 8.48617 | 28953 ft | 481 kts | 339° |
| 2026-05-06 19:17 | 50.17162 | 8.46890 | 27977 ft | 476 kts | 340° |
| 2026-05-06 19:17 | 50.20274 | 8.45230 | 27049 ft | 471 kts | 340° |
| 2026-05-06 19:17 | 50.23348 | 8.43569 | 26138 ft | 466 kts | 340° |
| 2026-05-06 19:17 | 50.26386 | 8.41901 | 25253 ft | 460 kts | 339° |
| 2026-05-06 19:18 | 50.29369 | 8.40221 | 24392 ft | 453 kts | 336° |
| 2026-05-06 19:18 | 50.32115 | 8.37927 | 23566 ft | 445 kts | 326° |
| 2026-05-06 19:18 | 50.34653 | 8.35242 | 22623 ft | 438 kts | 323° |
| 2026-05-06 19:18 | 50.37135 | 8.32558 | 21685 ft | 431 kts | 324° |
| 2026-05-06 19:19 | 50.39615 | 8.29979 | 20770 ft | 425 kts | 325° |
| 2026-05-06 19:19 | 50.42074 | 8.27489 | 19879 ft | 419 kts | 325° |
| 2026-05-06 19:19 | 50.44504 | 8.25055 | 19030 ft | 412 kts | 325° |
| 2026-05-06 19:19 | 50.46904 | 8.22669 | 18189 ft | 406 kts | 325° |
| 2026-05-06 19:20 | 50.49267 | 8.20313 | 17246 ft | 401 kts | 325° |
| 2026-05-06 19:20 | 50.51589 | 8.17968 | 16350 ft | 395 kts | 325° |
| 2026-05-06 19:20 | 50.53886 | 8.15657 | 15453 ft | 390 kts | 324° |
| 2026-05-06 19:20 | 50.56146 | 8.13379 | 14579 ft | 384 kts | 325° |
| 2026-05-06 19:21 | 50.58386 | 8.11148 | 13749 ft | 379 kts | 325° |
| 2026-05-06 19:21 | 50.60582 | 8.08927 | 12957 ft | 372 kts | 325° |
| 2026-05-06 19:21 | 50.62728 | 8.06779 | 12413 ft | 359 kts | 325° |
| 2026-05-06 19:21 | 50.64775 | 8.04700 | 12030 ft | 343 kts | 325° |
| 2026-05-06 19:22 | 50.66735 | 8.02725 | 11643 ft | 329 kts | 325° |
| 2026-05-06 19:22 | 50.68620 | 8.00827 | 11269 ft | 316 kts | 325° |
| 2026-05-06 19:22 | 50.70436 | 7.98989 | 10868 ft | 306 kts | 325° |
| 2026-05-06 19:22 | 50.72193 | 7.97197 | 10494 ft | 298 kts | 325° |
| 2026-05-06 19:23 | 50.73910 | 7.95441 | 10143 ft | 291 kts | 325° |
| 2026-05-06 19:23 | 50.75530 | 7.93574 | 9804 ft | 287 kts | 313° |
| 2026-05-06 19:23 | 50.76720 | 7.91085 | 9470 ft | 284 kts | 302° |
| 2026-05-06 19:23 | 50.77778 | 7.88469 | 9093 ft | 282 kts | 302° |
| 2026-05-06 19:24 | 50.78852 | 7.85811 | 8763 ft | 296 kts | 303° |
| 2026-05-06 19:24 | 50.79996 | 7.83041 | 8419 ft | 309 kts | 303° |
| 2026-05-06 19:24 | 50.81182 | 7.80175 | 8085 ft | 314 kts | 303° |
| 2026-05-06 19:24 | 50.82400 | 7.77288 | 7620 ft | 317 kts | 304° |
| 2026-05-06 19:25 | 50.83623 | 7.74401 | 7122 ft | 317 kts | 304° |
| 2026-05-06 19:25 | 50.84836 | 7.71520 | 6660 ft | 314 kts | 304° |
| 2026-05-06 19:25 | 50.86040 | 7.68657 | 6250 ft | 312 kts | 304° |
| 2026-05-06 19:25 | 50.87233 | 7.65796 | 5792 ft | 311 kts | 304° |
| 2026-05-06 19:26 | 50.88419 | 7.62959 | 5335 ft | 308 kts | 304° |
| 2026-05-06 19:26 | 50.89590 | 7.60147 | 4837 ft | 303 kts | 304° |
| 2026-05-06 19:26 | 50.90730 | 7.57413 | 4330 ft | 293 kts | 306° |
| 2026-05-06 19:26 | 50.92165 | 7.55280 | 3979 ft | 277 kts | 328° |
| 2026-05-06 19:27 | 50.93801 | 7.53835 | 3739 ft | 263 kts | 333° |
| 2026-05-06 19:27 | 50.95236 | 7.52223 | 3600 ft | 248 kts | 312° |
| 2026-05-06 19:27 | 50.95969 | 7.49855 | 3488 ft | 238 kts | 282° |
| 2026-05-06 19:27 | 50.95981 | 7.47315 | 3353 ft | 228 kts | 260° |
| 2026-05-06 19:28 | 50.95585 | 7.44942 | 3223 ft | 221 kts | 257° |
| 2026-05-06 19:28 | 50.95141 | 7.42571 | 3094 ft | 228 kts | 252° |
| 2026-05-06 19:28 | 50.94471 | 7.40280 | 3031 ft | 228 kts | 245° |
| 2026-05-06 19:28 | 50.93784 | 7.38109 | 3005 ft | 212 kts | 247° |
| 2026-05-06 19:29 | 50.93176 | 7.36090 | 2996 ft | 196 kts | 248° |
| 2026-05-06 19:29 | 50.92600 | 7.34171 | 2931 ft | 195 kts | 248° |
| 2026-05-06 19:29 | 50.92008 | 7.32215 | 2587 ft | 196 kts | 247° |
| 2026-05-06 19:29 | 50.91428 | 7.30292 | 2305 ft | 192 kts | 248° |
| 2026-05-06 19:30 | 50.90855 | 7.28396 | 2047 ft | 190 kts | 247° |
| 2026-05-06 19:30 | 50.90293 | 7.26530 | 1808 ft | 184 kts | 248° |
| 2026-05-06 19:30 | 50.89765 | 7.24787 | 1556 ft | 167 kts | 248° |
| 2026-05-06 19:30 | 50.89295 | 7.23237 | 1347 ft | 147 kts | 248° |
| 2026-05-06 19:31 | 50.88865 | 7.21802 | 1137 ft | 141 kts | 247° |
| 2026-05-06 19:31 | 50.88447 | 7.20426 | 960 ft | 139 kts | 246° |
| 2026-05-06 19:31 | 50.87636 | 7.17719 | 630 ft | 133 kts | 248° |
| 2026-05-06 19:32 | 50.87226 | 7.16398 | 471 ft | 136 kts | 245° |
| 2026-05-06 19:32 | 50.86824 | 7.15094 | 304 ft | 126 kts | 248° |
| 2026-05-06 19:32 | 50.86491 | 7.13960 | 262 ft | 95 kts | 243° |
| 2026-05-06 19:32 | 50.86280 | 7.13266 | 258 ft | 45 kts | 244° |
| 2026-05-06 19:33 | 50.86211 | 7.13032 | 255 ft | 15 kts | 246° |
| 2026-05-06 19:33 | 50.86157 | 7.12839 | 251 ft | 24 kts | 246° |
| 2026-05-06 19:33 | 50.86107 | 7.12564 | 245 ft | 26 kts | 272° |
| 2026-05-06 19:33 | 50.86108 | 7.12376 | 243 ft | 12 kts | 321° |
| 2026-05-06 19:34 | 50.86210 | 7.12337 | 239 ft | 17 kts | 354° |
| 2026-05-06 19:34 | 50.86325 | 7.12293 | 238 ft | 17 kts | 345° |
| 2026-05-06 19:34 | 50.86417 | 7.12238 | 238 ft | 10 kts | 296° |
| 2026-05-06 19:34 | 50.86409 | 7.12130 | 238 ft | 10 kts | 257° |
| 2026-05-06 19:35 | 50.86402 | 7.12086 | 238 ft | 0 kts | 253° |